sensor_id;sensor_type;location;lat;lon;timestamp;P1;durP1;ratioP1;P2;durP2;ratioP2
9815;SDS011;4947;44.526;11.360;2022-12-18T00:00:01;5.22;;;4.60;;
9815;SDS011;4947;44.526;11.360;2022-12-18T00:02:29;6.22;;;4.75;;
9815;SDS011;4947;44.526;11.360;2022-12-18T00:04:59;6.32;;;4.43;;
9815;SDS011;4947;44.526;11.360;2022-12-18T00:07:26;6.95;;;5.30;;
9815;SDS011;4947;44.526;11.360;2022-12-18T00:09:54;5.68;;;4.68;;
9815;SDS011;4947;44.526;11.360;2022-12-18T00:12:22;6.18;;;4.65;;
9815;SDS011;4947;44.526;11.360;2022-12-18T00:14:50;5.97;;;5.13;;
9815;SDS011;4947;44.526;11.360;2022-12-18T00:17:17;5.90;;;4.57;;
9815;SDS011;4947;44.526;11.360;2022-12-18T00:19:45;6.05;;;4.85;;
9815;SDS011;4947;44.526;11.360;2022-12-18T00:22:14;7.50;;;4.27;;
9815;SDS011;4947;44.526;11.360;2022-12-18T00:24:45;7.70;;;4.65;;
9815;SDS011;4947;44.526;11.360;2022-12-18T00:27:14;6.07;;;4.60;;
9815;SDS011;4947;44.526;11.360;2022-12-18T00:29:41;5.00;;;4.50;;
9815;SDS011;4947;44.526;11.360;2022-12-18T00:32:09;6.50;;;4.38;;
9815;SDS011;4947;44.526;11.360;2022-12-18T00:34:36;5.20;;;4.65;;
9815;SDS011;4947;44.526;11.360;2022-12-18T00:37:04;5.25;;;4.32;;
9815;SDS011;4947;44.526;11.360;2022-12-18T00:39:33;6.70;;;5.10;;
9815;SDS011;4947;44.526;11.360;2022-12-18T00:42:01;6.03;;;4.78;;
9815;SDS011;4947;44.526;11.360;2022-12-18T00:44:46;6.47;;;4.27;;
9815;SDS011;4947;44.526;11.360;2022-12-18T00:47:13;6.43;;;4.20;;
9815;SDS011;4947;44.526;11.360;2022-12-18T00:49:41;6.35;;;4.72;;
9815;SDS011;4947;44.526;11.360;2022-12-18T00:52:09;5.75;;;4.60;;
9815;SDS011;4947;44.526;11.360;2022-12-18T00:54:38;7.38;;;4.82;;
9815;SDS011;4947;44.526;11.360;2022-12-18T00:57:05;5.30;;;4.28;;
9815;SDS011;4947;44.526;11.360;2022-12-18T00:59:33;5.32;;;4.10;;
9815;SDS011;4947;44.526;11.360;2022-12-18T01:02:00;7.00;;;5.40;;
9815;SDS011;4947;44.526;11.360;2022-12-18T01:04:28;7.18;;;4.88;;
9815;SDS011;4947;44.526;11.360;2022-12-18T01:06:58;6.78;;;4.50;;
9815;SDS011;4947;44.526;11.360;2022-12-18T01:09:26;7.03;;;4.40;;
9815;SDS011;4947;44.526;11.360;2022-12-18T01:11:55;7.68;;;5.35;;
9815;SDS011;4947;44.526;11.360;2022-12-18T01:14:22;7.13;;;4.88;;
9815;SDS011;4947;44.526;11.360;2022-12-18T01:16:49;4.57;;;4.18;;
9815;SDS011;4947;44.526;11.360;2022-12-18T01:19:18;6.57;;;4.82;;
9815;SDS011;4947;44.526;11.360;2022-12-18T01:21:45;6.47;;;4.63;;
9815;SDS011;4947;44.526;11.360;2022-12-18T01:24:13;6.68;;;4.63;;
9815;SDS011;4947;44.526;11.360;2022-12-18T01:26:40;6.95;;;4.82;;
9815;SDS011;4947;44.526;11.360;2022-12-18T01:29:09;6.53;;;4.78;;
9815;SDS011;4947;44.526;11.360;2022-12-18T01:31:37;5.72;;;4.80;;
9815;SDS011;4947;44.526;11.360;2022-12-18T01:34:04;5.97;;;4.68;;
9815;SDS011;4947;44.526;11.360;2022-12-18T01:36:33;7.53;;;5.03;;
9815;SDS011;4947;44.526;11.360;2022-12-18T01:39:02;6.88;;;5.38;;
9815;SDS011;4947;44.526;11.360;2022-12-18T01:41:35;6.35;;;5.03;;
9815;SDS011;4947;44.526;11.360;2022-12-18T01:47:23;6.20;;;5.60;;
9815;SDS011;4947;44.526;11.360;2022-12-18T01:49:54;7.10;;;5.18;;
9815;SDS011;4947;44.526;11.360;2022-12-18T01:52:22;7.43;;;5.78;;
9815;SDS011;4947;44.526;11.360;2022-12-18T01:54:52;6.73;;;5.43;;
9815;SDS011;4947;44.526;11.360;2022-12-18T01:57:21;8.55;;;5.57;;
9815;SDS011;4947;44.526;11.360;2022-12-18T01:59:50;6.97;;;5.70;;
9815;SDS011;4947;44.526;11.360;2022-12-18T02:02:20;7.57;;;5.70;;
9815;SDS011;4947;44.526;11.360;2022-12-18T02:04:50;9.20;;;5.07;;
9815;SDS011;4947;44.526;11.360;2022-12-18T02:07:20;9.77;;;5.77;;
9815;SDS011;4947;44.526;11.360;2022-12-18T02:09:58;8.80;;;5.87;;
9815;SDS011;4947;44.526;11.360;2022-12-18T02:12:30;6.07;;;4.77;;
9815;SDS011;4947;44.526;11.360;2022-12-18T02:15:05;9.23;;;5.40;;
9815;SDS011;4947;44.526;11.360;2022-12-18T02:17:41;7.30;;;5.53;;
9815;SDS011;4947;44.526;11.360;2022-12-18T02:20:13;8.33;;;5.50;;
9815;SDS011;4947;44.526;11.360;2022-12-18T02:22:48;6.07;;;5.22;;
9815;SDS011;4947;44.526;11.360;2022-12-18T02:25:30;7.70;;;5.67;;
9815;SDS011;4947;44.526;11.360;2022-12-18T02:28:09;7.20;;;5.57;;
9815;SDS011;4947;44.526;11.360;2022-12-18T02:30:39;6.73;;;5.17;;
9815;SDS011;4947;44.526;11.360;2022-12-18T02:33:08;8.65;;;5.95;;
9815;SDS011;4947;44.526;11.360;2022-12-18T02:35:43;9.30;;;5.37;;
9815;SDS011;4947;44.526;11.360;2022-12-18T02:38:12;7.47;;;5.87;;
9815;SDS011;4947;44.526;11.360;2022-12-18T02:40:41;8.93;;;5.40;;
9815;SDS011;4947;44.526;11.360;2022-12-18T02:43:11;7.90;;;5.88;;
9815;SDS011;4947;44.526;11.360;2022-12-18T02:45:46;8.93;;;6.30;;
9815;SDS011;4947;44.526;11.360;2022-12-18T02:48:13;6.93;;;5.77;;
9815;SDS011;4947;44.526;11.360;2022-12-18T02:50:44;7.57;;;6.00;;
9815;SDS011;4947;44.526;11.360;2022-12-18T02:53:16;8.87;;;5.43;;
9815;SDS011;4947;44.526;11.360;2022-12-18T02:55:52;7.50;;;5.63;;
9815;SDS011;4947;44.526;11.360;2022-12-18T02:58:33;6.93;;;5.73;;
9815;SDS011;4947;44.526;11.360;2022-12-18T03:01:07;7.17;;;5.37;;
9815;SDS011;4947;44.526;11.360;2022-12-18T03:03:42;6.50;;;5.57;;
9815;SDS011;4947;44.526;11.360;2022-12-18T03:06:15;6.47;;;5.20;;
9815;SDS011;4947;44.526;11.360;2022-12-18T03:08:48;6.80;;;5.03;;
9815;SDS011;4947;44.526;11.360;2022-12-18T03:11:19;7.43;;;5.63;;
9815;SDS011;4947;44.526;11.360;2022-12-18T03:14:08;8.33;;;6.20;;
9815;SDS011;4947;44.526;11.360;2022-12-18T03:16:39;7.40;;;5.73;;
9815;SDS011;4947;44.526;11.360;2022-12-18T03:19:08;11.23;;;5.95;;
9815;SDS011;4947;44.526;11.360;2022-12-18T03:21:42;6.73;;;4.90;;
9815;SDS011;4947;44.526;11.360;2022-12-18T03:24:12;7.90;;;5.27;;
9815;SDS011;4947;44.526;11.360;2022-12-18T03:26:42;6.63;;;4.87;;
9815;SDS011;4947;44.526;11.360;2022-12-18T03:29:16;6.90;;;5.00;;
9815;SDS011;4947;44.526;11.360;2022-12-18T03:31:47;9.67;;;5.70;;
9815;SDS011;4947;44.526;11.360;2022-12-18T03:34:21;8.23;;;5.63;;
9815;SDS011;4947;44.526;11.360;2022-12-18T03:36:52;8.00;;;5.57;;
9815;SDS011;4947;44.526;11.360;2022-12-18T03:39:19;8.67;;;5.63;;
9815;SDS011;4947;44.526;11.360;2022-12-18T03:41:48;9.60;;;5.80;;
9815;SDS011;4947;44.526;11.360;2022-12-18T03:44:26;8.30;;;6.13;;
9815;SDS011;4947;44.526;11.360;2022-12-18T03:46:59;7.30;;;5.87;;
9815;SDS011;4947;44.526;11.360;2022-12-18T03:49:33;7.77;;;5.70;;
9815;SDS011;4947;44.526;11.360;2022-12-18T03:52:04;7.90;;;5.87;;
9815;SDS011;4947;44.526;11.360;2022-12-18T03:54:36;7.23;;;5.80;;
9815;SDS011;4947;44.526;11.360;2022-12-18T03:57:07;8.70;;;6.03;;
9815;SDS011;4947;44.526;11.360;2022-12-18T03:59:41;10.57;;;6.50;;
9815;SDS011;4947;44.526;11.360;2022-12-18T04:02:11;6.95;;;5.35;;
9815;SDS011;4947;44.526;11.360;2022-12-18T04:04:41;7.53;;;5.60;;
9815;SDS011;4947;44.526;11.360;2022-12-18T04:07:11;7.13;;;5.70;;
9815;SDS011;4947;44.526;11.360;2022-12-18T04:09:40;6.95;;;5.68;;
9815;SDS011;4947;44.526;11.360;2022-12-18T04:12:08;8.77;;;5.60;;
9815;SDS011;4947;44.526;11.360;2022-12-18T04:14:36;7.60;;;6.00;;
9815;SDS011;4947;44.526;11.360;2022-12-18T04:17:05;8.13;;;5.23;;
9815;SDS011;4947;44.526;11.360;2022-12-18T04:19:32;8.27;;;5.50;;
9815;SDS011;4947;44.526;11.360;2022-12-18T04:22:00;9.38;;;6.13;;
9815;SDS011;4947;44.526;11.360;2022-12-18T04:24:31;9.23;;;5.95;;
9815;SDS011;4947;44.526;11.360;2022-12-18T04:26:59;12.13;;;5.77;;
9815;SDS011;4947;44.526;11.360;2022-12-18T04:29:27;7.87;;;5.80;;
9815;SDS011;4947;44.526;11.360;2022-12-18T04:31:54;7.57;;;5.73;;
9815;SDS011;4947;44.526;11.360;2022-12-18T04:34:24;8.55;;;6.10;;
9815;SDS011;4947;44.526;11.360;2022-12-18T04:36:51;8.57;;;5.70;;
9815;SDS011;4947;44.526;11.360;2022-12-18T04:39:18;9.17;;;5.80;;
9815;SDS011;4947;44.526;11.360;2022-12-18T04:41:46;9.40;;;6.17;;
9815;SDS011;4947;44.526;11.360;2022-12-18T04:44:14;8.47;;;5.70;;
9815;SDS011;4947;44.526;11.360;2022-12-18T04:46:41;6.70;;;5.97;;
9815;SDS011;4947;44.526;11.360;2022-12-18T04:49:08;7.60;;;5.83;;
9815;SDS011;4947;44.526;11.360;2022-12-18T04:51:38;8.93;;;5.68;;
9815;SDS011;4947;44.526;11.360;2022-12-18T04:54:10;7.70;;;5.77;;
9815;SDS011;4947;44.526;11.360;2022-12-18T04:56:38;6.38;;;5.60;;
9815;SDS011;4947;44.526;11.360;2022-12-18T04:59:05;9.50;;;6.45;;
9815;SDS011;4947;44.526;11.360;2022-12-18T05:01:33;8.18;;;6.32;;
9815;SDS011;4947;44.526;11.360;2022-12-18T05:04:00;7.65;;;6.03;;
9815;SDS011;4947;44.526;11.360;2022-12-18T05:06:28;8.87;;;6.47;;
9815;SDS011;4947;44.526;11.360;2022-12-18T05:08:57;10.90;;;5.60;;
9815;SDS011;4947;44.526;11.360;2022-12-18T05:11:25;9.07;;;7.15;;
9815;SDS011;4947;44.526;11.360;2022-12-18T05:13:52;6.20;;;5.60;;
9815;SDS011;4947;44.526;11.360;2022-12-18T05:16:20;8.70;;;5.65;;
9815;SDS011;4947;44.526;11.360;2022-12-18T05:18:47;6.95;;;5.75;;
9815;SDS011;4947;44.526;11.360;2022-12-18T05:21:15;6.97;;;5.45;;
9815;SDS011;4947;44.526;11.360;2022-12-18T05:23:42;8.77;;;5.87;;
9815;SDS011;4947;44.526;11.360;2022-12-18T05:26:14;8.85;;;6.20;;
9815;SDS011;4947;44.526;11.360;2022-12-18T05:28:43;7.03;;;5.75;;
9815;SDS011;4947;44.526;11.360;2022-12-18T05:31:11;8.30;;;6.33;;
9815;SDS011;4947;44.526;11.360;2022-12-18T05:33:39;8.02;;;5.22;;
9815;SDS011;4947;44.526;11.360;2022-12-18T05:36:07;8.57;;;6.03;;
9815;SDS011;4947;44.526;11.360;2022-12-18T05:38:36;6.50;;;5.50;;
9815;SDS011;4947;44.526;11.360;2022-12-18T05:41:05;7.90;;;5.40;;
9815;SDS011;4947;44.526;11.360;2022-12-18T05:43:35;8.85;;;5.40;;
9815;SDS011;4947;44.526;11.360;2022-12-18T05:46:04;7.72;;;5.47;;
9815;SDS011;4947;44.526;11.360;2022-12-18T05:48:33;7.57;;;5.80;;
9815;SDS011;4947;44.526;11.360;2022-12-18T05:51:03;6.93;;;5.73;;
9815;SDS011;4947;44.526;11.360;2022-12-18T05:53:32;8.40;;;5.63;;
9815;SDS011;4947;44.526;11.360;2022-12-18T05:56:00;7.78;;;5.63;;
9815;SDS011;4947;44.526;11.360;2022-12-18T05:58:28;7.33;;;5.80;;
9815;SDS011;4947;44.526;11.360;2022-12-18T06:01:04;10.63;;;5.60;;
9815;SDS011;4947;44.526;11.360;2022-12-18T06:03:34;7.20;;;5.57;;
9815;SDS011;4947;44.526;11.360;2022-12-18T06:06:01;9.57;;;6.10;;
9815;SDS011;4947;44.526;11.360;2022-12-18T06:08:29;8.07;;;5.57;;
9815;SDS011;4947;44.526;11.360;2022-12-18T06:10:57;10.18;;;6.10;;
9815;SDS011;4947;44.526;11.360;2022-12-18T06:13:24;7.90;;;6.47;;
9815;SDS011;4947;44.526;11.360;2022-12-18T06:15:52;8.30;;;5.83;;
9815;SDS011;4947;44.526;11.360;2022-12-18T06:18:21;8.57;;;5.60;;
9815;SDS011;4947;44.526;11.360;2022-12-18T06:20:54;9.27;;;6.10;;
9815;SDS011;4947;44.526;11.360;2022-12-18T06:23:22;9.17;;;6.43;;
9815;SDS011;4947;44.526;11.360;2022-12-18T06:25:50;7.68;;;5.78;;
9815;SDS011;4947;44.526;11.360;2022-12-18T06:28:18;8.50;;;5.83;;
9815;SDS011;4947;44.526;11.360;2022-12-18T06:30:45;10.60;;;5.72;;
9815;SDS011;4947;44.526;11.360;2022-12-18T06:33:14;7.93;;;5.57;;
9815;SDS011;4947;44.526;11.360;2022-12-18T06:35:43;9.57;;;5.27;;
9815;SDS011;4947;44.526;11.360;2022-12-18T06:38:10;6.80;;;4.90;;
9815;SDS011;4947;44.526;11.360;2022-12-18T06:40:38;8.93;;;5.50;;
9815;SDS011;4947;44.526;11.360;2022-12-18T06:43:05;7.47;;;5.87;;
9815;SDS011;4947;44.526;11.360;2022-12-18T06:45:33;8.35;;;5.90;;
9815;SDS011;4947;44.526;11.360;2022-12-18T06:48:01;9.80;;;5.73;;
9815;SDS011;4947;44.526;11.360;2022-12-18T06:50:28;6.77;;;5.40;;
9815;SDS011;4947;44.526;11.360;2022-12-18T06:52:57;7.87;;;5.67;;
9815;SDS011;4947;44.526;11.360;2022-12-18T06:55:25;7.93;;;5.63;;
9815;SDS011;4947;44.526;11.360;2022-12-18T06:57:53;8.47;;;5.97;;
9815;SDS011;4947;44.526;11.360;2022-12-18T07:00:20;12.60;;;6.90;;
9815;SDS011;4947;44.526;11.360;2022-12-18T07:02:48;9.43;;;6.30;;
9815;SDS011;4947;44.526;11.360;2022-12-18T07:05:16;10.67;;;6.07;;
9815;SDS011;4947;44.526;11.360;2022-12-18T07:07:43;11.77;;;6.87;;
9815;SDS011;4947;44.526;11.360;2022-12-18T07:10:12;10.67;;;6.23;;
9815;SDS011;4947;44.526;11.360;2022-12-18T07:12:40;10.10;;;6.00;;
9815;SDS011;4947;44.526;11.360;2022-12-18T07:15:08;11.10;;;7.00;;
9815;SDS011;4947;44.526;11.360;2022-12-18T07:17:36;10.83;;;6.17;;
9815;SDS011;4947;44.526;11.360;2022-12-18T07:20:04;9.80;;;6.33;;
9815;SDS011;4947;44.526;11.360;2022-12-18T07:22:32;9.10;;;5.97;;
9815;SDS011;4947;44.526;11.360;2022-12-18T07:24:59;11.60;;;6.97;;
9815;SDS011;4947;44.526;11.360;2022-12-18T07:27:28;8.37;;;6.10;;
9815;SDS011;4947;44.526;11.360;2022-12-18T07:29:56;10.57;;;6.90;;
9815;SDS011;4947;44.526;11.360;2022-12-18T07:32:24;7.80;;;6.33;;
9815;SDS011;4947;44.526;11.360;2022-12-18T07:34:51;11.70;;;7.03;;
9815;SDS011;4947;44.526;11.360;2022-12-18T07:37:19;9.20;;;6.67;;
9815;SDS011;4947;44.526;11.360;2022-12-18T07:39:46;9.23;;;6.97;;
9815;SDS011;4947;44.526;11.360;2022-12-18T07:42:14;11.33;;;7.73;;
9815;SDS011;4947;44.526;11.360;2022-12-18T07:45:02;9.87;;;7.20;;
9815;SDS011;4947;44.526;11.360;2022-12-18T07:47:30;12.03;;;7.47;;
9815;SDS011;4947;44.526;11.360;2022-12-18T07:50:01;8.47;;;6.33;;
9815;SDS011;4947;44.526;11.360;2022-12-18T07:52:28;10.20;;;6.93;;
9815;SDS011;4947;44.526;11.360;2022-12-18T07:54:56;9.87;;;7.50;;
9815;SDS011;4947;44.526;11.360;2022-12-18T07:57:23;13.17;;;7.90;;
9815;SDS011;4947;44.526;11.360;2022-12-18T07:59:50;12.20;;;8.20;;
9815;SDS011;4947;44.526;11.360;2022-12-18T08:02:20;10.47;;;7.83;;
9815;SDS011;4947;44.526;11.360;2022-12-18T08:04:47;9.80;;;7.80;;
9815;SDS011;4947;44.526;11.360;2022-12-18T08:07:15;10.13;;;7.40;;
9815;SDS011;4947;44.526;11.360;2022-12-18T08:09:42;11.40;;;8.33;;
9815;SDS011;4947;44.526;11.360;2022-12-18T08:12:10;9.03;;;6.73;;
9815;SDS011;4947;44.526;11.360;2022-12-18T08:14:38;10.70;;;6.80;;
9815;SDS011;4947;44.526;11.360;2022-12-18T08:17:05;8.70;;;6.87;;
9815;SDS011;4947;44.526;11.360;2022-12-18T08:19:35;8.87;;;6.47;;
9815;SDS011;4947;44.526;11.360;2022-12-18T08:22:02;8.23;;;6.90;;
9815;SDS011;4947;44.526;11.360;2022-12-18T08:24:31;9.03;;;6.90;;
9815;SDS011;4947;44.526;11.360;2022-12-18T08:26:58;8.33;;;6.37;;
9815;SDS011;4947;44.526;11.360;2022-12-18T08:29:25;11.10;;;7.57;;
9815;SDS011;4947;44.526;11.360;2022-12-18T08:31:53;8.30;;;6.83;;
9815;SDS011;4947;44.526;11.360;2022-12-18T08:34:20;9.50;;;6.50;;
9815;SDS011;4947;44.526;11.360;2022-12-18T08:36:49;10.13;;;6.20;;
9815;SDS011;4947;44.526;11.360;2022-12-18T08:39:17;10.10;;;7.10;;
9815;SDS011;4947;44.526;11.360;2022-12-18T08:41:44;8.10;;;6.93;;
9815;SDS011;4947;44.526;11.360;2022-12-18T08:44:32;8.67;;;6.77;;
9815;SDS011;4947;44.526;11.360;2022-12-18T08:47:04;6.55;;;5.55;;
9815;SDS011;4947;44.526;11.360;2022-12-18T08:49:37;7.93;;;5.60;;
9815;SDS011;4947;44.526;11.360;2022-12-18T08:52:06;11.85;;;6.60;;
9815;SDS011;4947;44.526;11.360;2022-12-18T08:54:33;9.00;;;6.38;;
9815;SDS011;4947;44.526;11.360;2022-12-18T08:57:01;8.87;;;6.20;;
9815;SDS011;4947;44.526;11.360;2022-12-18T08:59:28;9.05;;;5.88;;
9815;SDS011;4947;44.526;11.360;2022-12-18T09:01:56;8.47;;;6.90;;
9815;SDS011;4947;44.526;11.360;2022-12-18T09:04:23;7.77;;;5.93;;
9815;SDS011;4947;44.526;11.360;2022-12-18T09:06:51;7.43;;;5.20;;
9815;SDS011;4947;44.526;11.360;2022-12-18T09:09:20;9.88;;;6.47;;
9815;SDS011;4947;44.526;11.360;2022-12-18T09:11:49;9.27;;;5.97;;
9815;SDS011;4947;44.526;11.360;2022-12-18T09:14:16;8.80;;;6.17;;
9815;SDS011;4947;44.526;11.360;2022-12-18T09:16:44;7.28;;;5.78;;
9815;SDS011;4947;44.526;11.360;2022-12-18T09:19:12;8.68;;;5.95;;
9815;SDS011;4947;44.526;11.360;2022-12-18T09:21:39;8.50;;;5.35;;
9815;SDS011;4947;44.526;11.360;2022-12-18T09:24:08;7.93;;;6.10;;
9815;SDS011;4947;44.526;11.360;2022-12-18T09:26:41;9.02;;;6.00;;
9815;SDS011;4947;44.526;11.360;2022-12-18T09:29:09;9.57;;;5.47;;
9815;SDS011;4947;44.526;11.360;2022-12-18T09:31:36;8.43;;;5.18;;
9815;SDS011;4947;44.526;11.360;2022-12-18T09:34:05;8.80;;;5.53;;
9815;SDS011;4947;44.526;11.360;2022-12-18T09:36:32;8.47;;;5.60;;
9815;SDS011;4947;44.526;11.360;2022-12-18T09:39:00;9.68;;;5.70;;
9815;SDS011;4947;44.526;11.360;2022-12-18T09:44:21;7.20;;;6.17;;
9815;SDS011;4947;44.526;11.360;2022-12-18T09:46:58;6.03;;;5.07;;
9815;SDS011;4947;44.526;11.360;2022-12-18T09:49:30;7.85;;;5.38;;
9815;SDS011;4947;44.526;11.360;2022-12-18T09:52:02;9.00;;;6.00;;
9815;SDS011;4947;44.526;11.360;2022-12-18T09:54:32;7.88;;;5.45;;
9815;SDS011;4947;44.526;11.360;2022-12-18T09:57:05;8.25;;;6.05;;
9815;SDS011;4947;44.526;11.360;2022-12-18T09:59:33;8.13;;;5.65;;
9815;SDS011;4947;44.526;11.360;2022-12-18T10:02:16;9.32;;;5.95;;
9815;SDS011;4947;44.526;11.360;2022-12-18T10:04:48;7.80;;;5.50;;
9815;SDS011;4947;44.526;11.360;2022-12-18T10:07:27;9.50;;;6.10;;
9815;SDS011;4947;44.526;11.360;2022-12-18T10:10:02;8.88;;;5.18;;
9815;SDS011;4947;44.526;11.360;2022-12-18T10:12:38;7.97;;;5.85;;
9815;SDS011;4947;44.526;11.360;2022-12-18T10:15:13;10.13;;;6.72;;
9815;SDS011;4947;44.526;11.360;2022-12-18T10:17:51;9.38;;;5.80;;
9815;SDS011;4947;44.526;11.360;2022-12-18T10:20:27;9.18;;;5.85;;
9815;SDS011;4947;44.526;11.360;2022-12-18T10:23:01;9.05;;;6.45;;
9815;SDS011;4947;44.526;11.360;2022-12-18T10:25:34;18.73;;;6.18;;
9815;SDS011;4947;44.526;11.360;2022-12-18T10:28:20;7.43;;;5.47;;
9815;SDS011;4947;44.526;11.360;2022-12-18T10:30:49;11.45;;;6.40;;
9815;SDS011;4947;44.526;11.360;2022-12-18T10:33:17;9.70;;;6.13;;
9815;SDS011;4947;44.526;11.360;2022-12-18T10:35:49;7.55;;;5.70;;
9815;SDS011;4947;44.526;11.360;2022-12-18T10:38:22;9.15;;;6.10;;
9815;SDS011;4947;44.526;11.360;2022-12-18T10:40:52;10.48;;;5.88;;
9815;SDS011;4947;44.526;11.360;2022-12-18T10:43:23;9.75;;;6.22;;
9815;SDS011;4947;44.526;11.360;2022-12-18T10:46:00;7.20;;;5.38;;
9815;SDS011;4947;44.526;11.360;2022-12-18T10:48:35;9.13;;;5.90;;
9815;SDS011;4947;44.526;11.360;2022-12-18T10:51:07;7.53;;;5.78;;
9815;SDS011;4947;44.526;11.360;2022-12-18T10:53:35;11.18;;;6.68;;
9815;SDS011;4947;44.526;11.360;2022-12-18T10:56:04;9.07;;;5.80;;
9815;SDS011;4947;44.526;11.360;2022-12-18T10:58:37;8.30;;;5.45;;
9815;SDS011;4947;44.526;11.360;2022-12-18T11:01:09;13.57;;;5.93;;
9815;SDS011;4947;44.526;11.360;2022-12-18T11:03:39;11.73;;;6.32;;
9815;SDS011;4947;44.526;11.360;2022-12-18T11:06:09;9.02;;;5.60;;
9815;SDS011;4947;44.526;11.360;2022-12-18T11:08:38;9.35;;;5.50;;
9815;SDS011;4947;44.526;11.360;2022-12-18T11:11:07;9.77;;;6.22;;
9815;SDS011;4947;44.526;11.360;2022-12-18T11:13:54;12.45;;;6.18;;
9815;SDS011;4947;44.526;11.360;2022-12-18T11:16:29;9.82;;;6.32;;
9815;SDS011;4947;44.526;11.360;2022-12-18T11:19:20;8.10;;;6.20;;
9815;SDS011;4947;44.526;11.360;2022-12-18T11:21:53;9.50;;;6.15;;
9815;SDS011;4947;44.526;11.360;2022-12-18T11:24:22;10.88;;;6.78;;
9815;SDS011;4947;44.526;11.360;2022-12-18T11:26:54;8.73;;;6.53;;
9815;SDS011;4947;44.526;11.360;2022-12-18T11:29:24;9.40;;;6.70;;
9815;SDS011;4947;44.526;11.360;2022-12-18T11:32:12;13.18;;;6.30;;
9815;SDS011;4947;44.526;11.360;2022-12-18T11:34:57;9.18;;;5.72;;
9815;SDS011;4947;44.526;11.360;2022-12-18T11:37:31;8.85;;;5.88;;
9815;SDS011;4947;44.526;11.360;2022-12-18T11:40:00;10.90;;;6.13;;
9815;SDS011;4947;44.526;11.360;2022-12-18T11:42:35;9.32;;;5.90;;
9815;SDS011;4947;44.526;11.360;2022-12-18T11:47:59;8.90;;;5.57;;
9815;SDS011;4947;44.526;11.360;2022-12-18T11:50:32;9.05;;;6.05;;
9815;SDS011;4947;44.526;11.360;2022-12-18T11:53:09;11.32;;;5.95;;
9815;SDS011;4947;44.526;11.360;2022-12-18T11:55:39;8.63;;;6.43;;
9815;SDS011;4947;44.526;11.360;2022-12-18T11:58:15;9.15;;;6.32;;
9815;SDS011;4947;44.526;11.360;2022-12-18T12:00:54;11.57;;;6.82;;
9815;SDS011;4947;44.526;11.360;2022-12-18T12:03:46;8.45;;;5.53;;
9815;SDS011;4947;44.526;11.360;2022-12-18T12:06:24;11.38;;;6.35;;
9815;SDS011;4947;44.526;11.360;2022-12-18T12:09:05;16.00;;;6.95;;
9815;SDS011;4947;44.526;11.360;2022-12-18T12:11:46;10.38;;;6.30;;
9815;SDS011;4947;44.526;11.360;2022-12-18T12:14:24;8.15;;;5.50;;
9815;SDS011;4947;44.526;11.360;2022-12-18T12:17:03;10.55;;;5.15;;
9815;SDS011;4947;44.526;11.360;2022-12-18T12:19:38;10.45;;;6.25;;
9815;SDS011;4947;44.526;11.360;2022-12-18T12:22:13;8.48;;;6.15;;
9815;SDS011;4947;44.526;11.360;2022-12-18T12:24:53;7.60;;;5.75;;
9815;SDS011;4947;44.526;11.360;2022-12-18T12:27:32;9.38;;;6.05;;
9815;SDS011;4947;44.526;11.360;2022-12-18T12:30:07;10.48;;;6.50;;
9815;SDS011;4947;44.526;11.360;2022-12-18T12:32:51;9.95;;;6.53;;
9815;SDS011;4947;44.526;11.360;2022-12-18T12:35:32;9.30;;;6.43;;
9815;SDS011;4947;44.526;11.360;2022-12-18T12:38:09;9.75;;;6.28;;
9815;SDS011;4947;44.526;11.360;2022-12-18T12:40:41;8.40;;;6.55;;
9815;SDS011;4947;44.526;11.360;2022-12-18T12:43:19;10.80;;;7.15;;
9815;SDS011;4947;44.526;11.360;2022-12-18T12:45:50;8.10;;;6.15;;
9815;SDS011;4947;44.526;11.360;2022-12-18T12:48:27;10.18;;;6.53;;
9815;SDS011;4947;44.526;11.360;2022-12-18T12:51:02;10.40;;;6.25;;
9815;SDS011;4947;44.526;11.360;2022-12-18T12:53:35;11.50;;;6.55;;
9815;SDS011;4947;44.526;11.360;2022-12-18T12:56:04;10.93;;;6.50;;
9815;SDS011;4947;44.526;11.360;2022-12-18T12:58:34;9.32;;;7.22;;
9815;SDS011;4947;44.526;11.360;2022-12-18T13:01:12;8.10;;;6.38;;
9815;SDS011;4947;44.526;11.360;2022-12-18T13:03:50;9.30;;;6.95;;
9815;SDS011;4947;44.526;11.360;2022-12-18T13:06:25;11.45;;;6.95;;
9815;SDS011;4947;44.526;11.360;2022-12-18T13:09:09;10.48;;;7.35;;
9815;SDS011;4947;44.526;11.360;2022-12-18T13:11:37;8.77;;;6.90;;
9815;SDS011;4947;44.526;11.360;2022-12-18T13:14:24;11.45;;;7.40;;
9815;SDS011;4947;44.526;11.360;2022-12-18T13:19:42;13.65;;;7.95;;
9815;SDS011;4947;44.526;11.360;2022-12-18T13:22:20;9.73;;;7.13;;
9815;SDS011;4947;44.526;11.360;2022-12-18T13:24:49;9.38;;;7.18;;
9815;SDS011;4947;44.526;11.360;2022-12-18T13:36:27;11.32;;;7.70;;
9815;SDS011;4947;44.526;11.360;2022-12-18T13:39:09;9.68;;;7.22;;
9815;SDS011;4947;44.526;11.360;2022-12-18T13:41:52;13.13;;;7.88;;
9815;SDS011;4947;44.526;11.360;2022-12-18T13:44:24;10.65;;;7.47;;
9815;SDS011;4947;44.526;11.360;2022-12-18T13:46:58;11.23;;;8.25;;
9815;SDS011;4947;44.526;11.360;2022-12-18T13:49:28;10.95;;;8.05;;
9815;SDS011;4947;44.526;11.360;2022-12-18T13:52:14;14.23;;;8.07;;
9815;SDS011;4947;44.526;11.360;2022-12-18T13:54:44;13.63;;;8.10;;
9815;SDS011;4947;44.526;11.360;2022-12-18T13:57:27;13.20;;;8.40;;
9815;SDS011;4947;44.526;11.360;2022-12-18T13:59:56;10.85;;;7.80;;
9815;SDS011;4947;44.526;11.360;2022-12-18T14:02:44;13.15;;;8.35;;
9815;SDS011;4947;44.526;11.360;2022-12-18T14:05:21;11.93;;;8.50;;
9815;SDS011;4947;44.526;11.360;2022-12-18T14:07:50;11.23;;;7.80;;
9815;SDS011;4947;44.526;11.360;2022-12-18T14:10:19;12.98;;;7.60;;
9815;SDS011;4947;44.526;11.360;2022-12-18T14:12:48;13.75;;;8.20;;
9815;SDS011;4947;44.526;11.360;2022-12-18T14:15:24;11.65;;;7.55;;
9815;SDS011;4947;44.526;11.360;2022-12-18T14:18:00;10.73;;;8.00;;
9815;SDS011;4947;44.526;11.360;2022-12-18T14:20:31;10.27;;;7.65;;
9815;SDS011;4947;44.526;11.360;2022-12-18T14:23:00;13.32;;;9.20;;
9815;SDS011;4947;44.526;11.360;2022-12-18T14:25:29;12.32;;;7.75;;
9815;SDS011;4947;44.526;11.360;2022-12-18T14:28:02;10.13;;;7.20;;
9815;SDS011;4947;44.526;11.360;2022-12-18T14:30:39;11.68;;;8.73;;
9815;SDS011;4947;44.526;11.360;2022-12-18T14:33:09;12.95;;;8.65;;
9815;SDS011;4947;44.526;11.360;2022-12-18T14:35:38;14.40;;;9.18;;
9815;SDS011;4947;44.526;11.360;2022-12-18T14:38:20;11.82;;;7.90;;
9815;SDS011;4947;44.526;11.360;2022-12-18T14:40:51;11.13;;;7.63;;
9815;SDS011;4947;44.526;11.360;2022-12-18T14:43:20;12.40;;;8.43;;
9815;SDS011;4947;44.526;11.360;2022-12-18T14:45:48;14.93;;;8.57;;
9815;SDS011;4947;44.526;11.360;2022-12-18T14:48:17;13.55;;;8.77;;
9815;SDS011;4947;44.526;11.360;2022-12-18T14:50:53;13.52;;;8.63;;
9815;SDS011;4947;44.526;11.360;2022-12-18T14:53:27;11.80;;;8.02;;
9815;SDS011;4947;44.526;11.360;2022-12-18T14:56:01;12.40;;;7.80;;
9815;SDS011;4947;44.526;11.360;2022-12-18T14:58:30;14.68;;;8.60;;
9815;SDS011;4947;44.526;11.360;2022-12-18T15:00:57;11.70;;;7.10;;
9815;SDS011;4947;44.526;11.360;2022-12-18T15:03:24;12.60;;;7.07;;
9815;SDS011;4947;44.526;11.360;2022-12-18T15:05:52;13.07;;;7.60;;
9815;SDS011;4947;44.526;11.360;2022-12-18T15:08:34;10.32;;;7.68;;
9815;SDS011;4947;44.526;11.360;2022-12-18T15:11:03;12.10;;;7.85;;
9815;SDS011;4947;44.526;11.360;2022-12-18T15:13:50;11.55;;;7.85;;
9815;SDS011;4947;44.526;11.360;2022-12-18T15:16:18;12.75;;;8.10;;
9815;SDS011;4947;44.526;11.360;2022-12-18T15:18:45;12.60;;;8.45;;
9815;SDS011;4947;44.526;11.360;2022-12-18T15:21:15;13.80;;;8.13;;
9815;SDS011;4947;44.526;11.360;2022-12-18T15:23:47;14.25;;;8.63;;
9815;SDS011;4947;44.526;11.360;2022-12-18T15:26:17;12.48;;;8.73;;
9815;SDS011;4947;44.526;11.360;2022-12-18T15:28:46;12.90;;;8.55;;
9815;SDS011;4947;44.526;11.360;2022-12-18T15:31:24;12.80;;;8.38;;
9815;SDS011;4947;44.526;11.360;2022-12-18T15:34:09;10.93;;;7.97;;
9815;SDS011;4947;44.526;11.360;2022-12-18T15:36:39;12.57;;;7.53;;
9815;SDS011;4947;44.526;11.360;2022-12-18T15:39:10;14.00;;;8.70;;
9815;SDS011;4947;44.526;11.360;2022-12-18T15:41:39;17.98;;;8.40;;